createdAt,value
2023-02-11T00:01:23.456Z,9.38
2023-02-11T00:03:51.310Z,9.27
2023-02-11T00:06:19.277Z,9.07
2023-02-11T00:08:47.516Z,9.48
2023-02-11T00:11:18.725Z,9.43
2023-02-11T00:13:47.750Z,9.35
2023-02-11T00:16:17.498Z,8.50
2023-02-11T00:18:45.965Z,8.32
2023-02-11T00:21:16.548Z,7.95
2023-02-11T00:23:44.688Z,8.02
2023-02-11T00:26:13.801Z,9.40
2023-02-11T00:28:43.294Z,8.88
2023-02-11T00:31:11.406Z,7.53
2023-02-11T00:33:39.388Z,7.95
2023-02-11T00:36:09.342Z,8.10
2023-02-11T00:38:37.258Z,7.82
2023-02-11T00:41:05.453Z,8.05
2023-02-11T00:43:33.280Z,7.35
2023-02-11T00:46:02.555Z,7.53
2023-02-11T00:48:30.423Z,7.60
2023-02-11T00:50:58.222Z,7.40
2023-02-11T00:53:26.002Z,7.85
2023-02-11T00:55:53.691Z,7.50
2023-02-11T00:58:22.513Z,6.90
2023-02-11T01:00:50.565Z,6.65
2023-02-11T01:03:19.607Z,6.55
2023-02-11T01:05:47.716Z,7.05
2023-02-11T01:08:15.535Z,7.03
2023-02-11T01:10:43.967Z,7.07
2023-02-11T01:13:12.046Z,7.35
2023-02-11T01:15:39.903Z,6.80
2023-02-11T01:18:07.665Z,6.40
2023-02-11T01:20:36.809Z,7.50
2023-02-11T01:23:04.536Z,6.10
2023-02-11T01:25:32.270Z,6.05
2023-02-11T01:28:00.023Z,6.03
2023-02-11T01:30:27.803Z,6.03
2023-02-11T01:32:55.481Z,5.97
2023-02-11T01:35:23.382Z,7.00
2023-02-11T01:37:52.512Z,6.93
2023-02-11T01:40:20.507Z,5.97
2023-02-11T01:42:50.716Z,6.10
2023-02-11T01:45:54.427Z,5.97
2023-02-11T01:48:25.317Z,7.32
2023-02-11T01:50:58.388Z,5.63
2023-02-11T01:53:47.755Z,5.88
2023-02-11T01:56:34.408Z,6.18
2023-02-11T01:59:10.748Z,6.25
2023-02-11T02:01:40.792Z,5.63
2023-02-11T02:04:10.807Z,5.90
2023-02-11T02:06:45.182Z,5.72
2023-02-11T02:09:19.758Z,5.15
2023-02-11T02:11:47.440Z,5.13
2023-02-11T02:14:15.220Z,5.95
2023-02-11T02:16:43.193Z,4.95
2023-02-11T02:19:50.555Z,5.47
2023-02-11T02:22:56.034Z,4.68
2023-02-11T02:25:43.582Z,5.50
2023-02-11T02:31:10.667Z,5.18
2023-02-11T02:33:46.404Z,5.22
2023-02-11T02:36:20.952Z,5.10
2023-02-11T02:38:55.624Z,5.45
2023-02-11T02:41:28.014Z,4.30
2023-02-11T02:43:56.332Z,5.85
2023-02-11T02:46:26.589Z,4.68
2023-02-11T02:48:56.414Z,4.90
2023-02-11T02:51:42.253Z,4.85
2023-02-11T02:54:41.049Z,4.97
2023-02-11T02:57:24.764Z,4.93
2023-02-11T03:00:05.196Z,4.82
2023-02-11T03:02:37.596Z,6.35
2023-02-11T03:05:13.134Z,4.25
2023-02-11T03:07:45.148Z,4.95
2023-02-11T03:10:17.618Z,4.60
2023-02-11T03:12:47.303Z,5.75
2023-02-11T03:15:16.008Z,4.50
2023-02-11T03:17:48.613Z,4.75
2023-02-11T03:20:21.259Z,4.53
2023-02-11T03:22:56.671Z,4.60
2023-02-11T03:25:29.795Z,4.65
2023-02-11T03:28:05.530Z,4.05
2023-02-11T03:30:39.569Z,5.20
2023-02-11T03:33:13.685Z,4.53
2023-02-11T03:35:47.109Z,4.85
2023-02-11T03:38:20.732Z,4.38
2023-02-11T03:40:48.876Z,5.55
2023-02-11T03:43:20.052Z,4.47
2023-02-11T03:45:50.429Z,4.03
2023-02-11T03:48:23.556Z,4.90
2023-02-11T03:50:54.305Z,4.90
2023-02-11T03:53:23.829Z,4.68
2023-02-11T03:55:53.806Z,4.97
2023-02-11T03:58:21.769Z,5.28
2023-02-11T04:00:50.613Z,4.72
2023-02-11T04:03:19.139Z,5.07
2023-02-11T04:05:46.934Z,5.03
2023-02-11T04:08:16.015Z,5.47
2023-02-11T04:10:43.682Z,4.90
2023-02-11T04:13:11.407Z,5.85
2023-02-11T04:15:39.164Z,4.55
2023-02-11T04:18:06.931Z,5.15
2023-02-11T04:20:34.655Z,5.05
2023-02-11T04:23:02.357Z,4.68
2023-02-11T04:25:31.585Z,4.85
2023-02-11T04:27:59.351Z,4.72
2023-02-11T04:30:27.036Z,4.43
2023-02-11T04:32:54.923Z,5.50
2023-02-11T04:35:22.763Z,5.50
2023-02-11T04:37:50.478Z,4.78
2023-02-11T04:40:18.456Z,5.95
2023-02-11T04:42:47.554Z,5.65
2023-02-11T04:45:15.292Z,4.85
2023-02-11T04:47:43.017Z,4.47
2023-02-11T04:50:11.092Z,5.20
2023-02-11T04:52:38.790Z,5.10
2023-02-11T04:55:07.408Z,5.15
2023-02-11T04:57:35.162Z,4.80
2023-02-11T05:00:04.551Z,5.78
2023-02-11T05:02:32.429Z,5.53
2023-02-11T05:05:00.200Z,6.00
2023-02-11T05:07:28.129Z,5.57
2023-02-11T05:09:55.824Z,5.88
2023-02-11T05:12:23.535Z,5.28
2023-02-11T05:14:51.233Z,5.13
2023-02-11T05:17:20.340Z,5.18
2023-02-11T05:19:48.064Z,5.05
2023-02-11T05:22:15.792Z,5.40
2023-02-11T05:24:43.530Z,5.57
2023-02-11T05:27:11.233Z,5.45
2023-02-11T05:29:39.237Z,6.05
2023-02-11T05:32:07.433Z,5.60
2023-02-11T05:34:36.533Z,5.05
2023-02-11T05:37:04.398Z,5.05
2023-02-11T05:39:32.137Z,5.32
2023-02-11T05:41:59.877Z,5.78
2023-02-11T05:44:27.723Z,5.63
2023-02-11T05:46:55.438Z,4.90
2023-02-11T05:49:23.176Z,5.47
2023-02-11T05:51:52.209Z,5.28
2023-02-11T05:54:19.945Z,6.53
2023-02-11T05:56:47.676Z,5.63
2023-02-11T05:59:16.608Z,7.63
2023-02-11T06:01:44.787Z,6.10
2023-02-11T06:04:12.555Z,6.13
2023-02-11T06:06:40.225Z,5.95
2023-02-11T06:09:10.773Z,6.55
2023-02-11T06:11:38.518Z,5.72
2023-02-11T06:14:06.335Z,6.80
2023-02-11T06:16:34.015Z,6.50
2023-02-11T06:19:01.742Z,6.82
2023-02-11T06:21:42.874Z,6.30
2023-02-11T06:24:21.655Z,6.30
2023-02-11T06:26:56.408Z,6.20
2023-02-11T06:29:24.173Z,7.13
2023-02-11T06:31:51.934Z,7.30
2023-02-11T06:34:19.637Z,8.60
2023-02-11T06:36:47.525Z,7.50
2023-02-11T06:39:16.624Z,7.40
2023-02-11T06:41:44.443Z,8.23
2023-02-11T06:44:12.267Z,7.68
2023-02-11T06:46:40.051Z,7.65
2023-02-11T06:49:07.765Z,7.07
2023-02-11T06:51:35.478Z,7.10
2023-02-11T06:54:03.228Z,7.65
2023-02-11T06:56:32.337Z,9.02
2023-02-11T06:59:00.505Z,9.30
2023-02-11T07:01:29.094Z,8.40
2023-02-11T07:03:57.470Z,9.38
2023-02-11T07:06:28.096Z,8.38
2023-02-11T07:08:56.936Z,8.93
2023-02-11T07:11:26.887Z,10.93
2023-02-11T07:13:58.498Z,9.23
2023-02-11T07:16:26.351Z,9.80
2023-02-11T07:18:54.295Z,9.35
2023-02-11T07:21:24.776Z,9.90
2023-02-11T07:23:52.510Z,9.85
2023-02-11T07:26:23.005Z,10.00
2023-02-11T07:28:51.829Z,10.23
2023-02-11T07:31:23.417Z,11.73
2023-02-11T07:33:53.184Z,12.05
2023-02-11T07:36:21.374Z,11.15
2023-02-11T07:38:49.123Z,13.73
2023-02-11T07:41:19.435Z,11.93
2023-02-11T07:43:47.332Z,13.65
2023-02-11T07:46:16.946Z,13.70
2023-02-11T07:48:46.275Z,12.88
2023-02-11T07:51:16.455Z,12.52
2023-02-11T07:53:44.546Z,12.98
2023-02-11T07:56:13.706Z,14.30
2023-02-11T07:58:43.045Z,14.68
2023-02-11T08:01:12.867Z,14.73
2023-02-11T08:03:42.757Z,14.80
2023-02-11T08:06:13.320Z,14.43
2023-02-11T08:08:41.311Z,15.30
2023-02-11T08:11:09.894Z,13.70
2023-02-11T08:13:38.054Z,17.75
2023-02-11T08:16:06.979Z,15.75
2023-02-11T08:18:36.362Z,16.38
2023-02-11T08:21:07.932Z,16.48
2023-02-11T08:23:38.088Z,16.23
2023-02-11T08:26:07.357Z,17.20
2023-02-11T08:28:37.293Z,17.30
2023-02-11T08:31:07.697Z,16.60
2023-02-11T08:33:35.705Z,16.70
2023-02-11T08:36:08.548Z,18.40
2023-02-11T08:38:37.812Z,17.73
2023-02-11T08:41:06.319Z,17.08
2023-02-11T08:43:34.043Z,18.52
2023-02-11T08:46:02.578Z,17.55
2023-02-11T08:48:31.216Z,18.75
2023-02-11T08:50:59.152Z,20.45
2023-02-11T08:53:26.948Z,19.33
2023-02-11T08:55:58.748Z,19.95
2023-02-11T08:58:26.528Z,20.05
2023-02-11T09:00:54.533Z,18.98
2023-02-11T09:03:22.407Z,19.95
2023-02-11T09:05:53.129Z,19.75
2023-02-11T09:08:21.090Z,19.45
2023-02-11T09:10:49.296Z,20.17
2023-02-11T09:13:18.538Z,19.58
2023-02-11T09:15:47.457Z,20.48
2023-02-11T09:18:15.470Z,19.95
2023-02-11T09:20:43.393Z,21.52
2023-02-11T09:23:12.355Z,18.75
2023-02-11T09:25:40.476Z,21.20
2023-02-11T09:28:08.612Z,23.38
2023-02-11T09:30:39.433Z,22.38
2023-02-11T09:33:07.264Z,24.60
2023-02-11T09:35:35.270Z,22.40
2023-02-11T09:38:03.039Z,23.40
2023-02-11T09:40:30.941Z,22.38
2023-02-11T09:43:05.275Z,21.67
2023-02-11T09:45:33.741Z,22.50
2023-02-11T09:48:06.471Z,23.45
2023-02-11T09:50:36.730Z,21.17
2023-02-11T09:53:10.998Z,23.17
2023-02-11T09:55:42.763Z,22.45
2023-02-11T09:58:14.894Z,23.65
2023-02-11T10:00:48.987Z,23.70
2023-02-11T10:03:56.837Z,25.10
2023-02-11T10:06:43.125Z,23.88
2023-02-11T10:09:34.297Z,22.85
2023-02-11T10:12:16.283Z,22.23
2023-02-11T10:15:05.183Z,24.70
2023-02-11T10:17:39.813Z,25.67
2023-02-11T10:20:24.862Z,25.00
2023-02-11T10:22:55.749Z,23.25
2023-02-11T10:25:26.305Z,26.17
2023-02-11T10:27:58.090Z,26.15
2023-02-11T10:30:32.231Z,26.95
2023-02-11T10:33:04.805Z,26.02
2023-02-11T10:35:34.260Z,25.23
2023-02-11T10:38:02.022Z,24.80
2023-02-11T10:40:32.500Z,25.17
2023-02-11T10:43:04.555Z,27.83
2023-02-11T10:45:37.105Z,26.13
2023-02-11T10:48:07.096Z,26.52
2023-02-11T10:50:37.047Z,25.15
2023-02-11T10:53:14.555Z,27.33
2023-02-11T10:55:51.320Z,28.42
2023-02-11T10:58:26.627Z,29.70
2023-02-11T11:00:56.700Z,28.55
2023-02-11T11:03:26.312Z,27.10
2023-02-11T11:05:58.722Z,26.90
2023-02-11T11:08:40.765Z,24.20
2023-02-11T11:11:10.810Z,27.20
2023-02-11T11:13:39.741Z,27.83
2023-02-11T11:16:21.402Z,26.13
2023-02-11T11:18:50.910Z,27.13
2023-02-11T11:21:23.802Z,27.15
2023-02-11T11:23:55.516Z,24.05
2023-02-11T11:26:24.016Z,26.85
2023-02-11T11:28:56.137Z,24.40
2023-02-11T11:31:27.836Z,26.80
2023-02-11T11:33:59.615Z,26.33
2023-02-11T11:36:36.266Z,26.50
2023-02-11T11:39:16.618Z,26.50
2023-02-11T11:41:52.550Z,24.85
2023-02-11T11:44:26.131Z,26.37
2023-02-11T11:47:14.828Z,26.33
2023-02-11T11:49:49.829Z,25.98
2023-02-11T11:52:27.590Z,24.80
2023-02-11T11:55:02.889Z,24.75
2023-02-11T11:57:31.034Z,25.48
2023-02-11T11:59:59.410Z,25.25
2023-02-11T12:02:53.423Z,26.85
2023-02-11T12:05:29.334Z,25.35
2023-02-11T12:08:13.150Z,25.10
2023-02-11T12:11:00.923Z,26.35
2023-02-11T12:13:41.896Z,27.35
2023-02-11T12:16:27.301Z,26.75
2023-02-11T12:19:45.892Z,27.17
2023-02-11T12:22:22.830Z,25.73
2023-02-11T12:27:42.507Z,25.85
2023-02-11T12:30:24.100Z,27.77
2023-02-11T12:33:01.828Z,28.75
2023-02-11T12:35:37.888Z,29.58
2023-02-11T12:38:21.205Z,30.05
2023-02-11T12:41:02.739Z,28.42
2023-02-11T12:43:36.094Z,29.95
2023-02-11T12:46:24.356Z,28.73
2023-02-11T12:49:18.457Z,31.17
2023-02-11T12:52:02.196Z,30.38
2023-02-11T12:54:33.024Z,27.40
2023-02-11T12:57:07.258Z,28.63
2023-02-11T12:59:46.685Z,27.50
2023-02-11T13:02:25.317Z,29.08
2023-02-11T13:04:57.857Z,31.65
2023-02-11T13:07:32.149Z,28.63
2023-02-11T13:10:05.430Z,27.27
2023-02-11T13:12:53.920Z,31.15
2023-02-11T13:15:21.652Z,31.58
2023-02-11T13:18:01.096Z,31.67
2023-02-11T13:20:36.776Z,31.63
2023-02-11T13:23:12.637Z,30.88
2023-02-11T13:25:47.349Z,29.80
2023-02-11T13:28:34.813Z,31.05
2023-02-11T13:31:03.771Z,30.70
2023-02-11T13:33:33.935Z,28.83
2023-02-11T13:36:20.295Z,32.10
2023-02-11T13:39:00.884Z,33.60
2023-02-11T13:41:52.456Z,33.28
2023-02-11T13:44:26.179Z,32.92
2023-02-11T13:47:01.336Z,31.90
2023-02-11T13:49:36.343Z,31.85
2023-02-11T13:52:06.905Z,30.58
2023-02-11T13:54:38.088Z,32.75
2023-02-11T13:57:36.587Z,32.55
2023-02-11T14:00:27.770Z,30.05
2023-02-11T14:03:44.588Z,29.38
2023-02-11T14:06:33.061Z,31.27
2023-02-11T14:09:09.923Z,31.83
2023-02-11T14:14:19.922Z,30.20
2023-02-11T14:17:21.230Z,27.55
2023-02-11T14:19:50.421Z,28.38
2023-02-11T14:22:23.695Z,28.80
2023-02-11T14:24:55.484Z,27.38
2023-02-11T14:27:38.556Z,28.52
2023-02-11T14:30:25.339Z,29.25
2023-02-11T14:33:11.054Z,28.02
2023-02-11T14:35:48.718Z,27.52
2023-02-11T14:38:25.946Z,29.35
2023-02-11T14:41:02.720Z,27.05
2023-02-11T14:46:02.284Z,26.70
2023-02-11T14:48:32.624Z,28.17
2023-02-11T14:51:04.115Z,27.95
2023-02-11T14:53:34.747Z,28.98
2023-02-11T14:56:02.501Z,30.25
2023-02-11T14:58:31.769Z,29.42
2023-02-11T15:01:01.794Z,29.20
2023-02-11T15:03:34.272Z,28.60
2023-02-11T15:06:06.464Z,28.48
2023-02-11T15:08:38.267Z,27.50
2023-02-11T15:11:13.021Z,26.73
2023-02-11T15:13:47.481Z,27.27
2023-02-11T15:16:18.500Z,28.33
2023-02-11T15:18:52.496Z,27.55
2023-02-11T15:21:25.441Z,26.38
2023-02-11T15:23:58.165Z,27.33
2023-02-11T15:26:26.012Z,27.45
2023-02-11T15:28:53.785Z,26.70
2023-02-11T15:31:24.299Z,26.92
2023-02-11T15:33:54.588Z,26.95
2023-02-11T15:36:29.010Z,26.55
2023-02-11T15:39:19.622Z,28.42
2023-02-11T15:41:47.428Z,28.33
2023-02-11T15:44:33.159Z,27.25
2023-02-11T15:47:01.345Z,27.98
2023-02-11T15:49:30.479Z,26.45
2023-02-11T15:51:59.079Z,28.25
2023-02-11T15:54:31.547Z,29.38
2023-02-11T15:57:03.824Z,27.17
2023-02-11T15:59:35.495Z,26.48
2023-02-11T16:02:08.961Z,26.75
2023-02-11T16:04:38.766Z,27.35
2023-02-11T16:07:06.596Z,26.63
2023-02-11T16:09:36.121Z,26.15
2023-02-11T16:12:07.501Z,25.20
2023-02-11T16:14:39.311Z,26.63
2023-02-11T16:17:09.728Z,27.13
2023-02-11T16:19:44.852Z,27.65
2023-02-11T16:22:18.210Z,26.23
2023-02-11T16:24:49.032Z,26.55
2023-02-11T16:27:23.743Z,25.65
2023-02-11T16:29:52.148Z,27.45
2023-02-11T16:32:22.402Z,27.00
2023-02-11T16:34:52.376Z,27.63
2023-02-11T16:37:20.152Z,25.30
2023-02-11T16:39:47.972Z,25.52
2023-02-11T16:42:15.708Z,24.85
2023-02-11T16:44:43.454Z,26.83
2023-02-11T16:47:18.974Z,27.77
2023-02-11T16:49:46.772Z,25.42
2023-02-11T16:52:17.164Z,25.35
2023-02-11T16:54:45.340Z,25.20
2023-02-11T16:57:15.658Z,27.52
2023-02-11T16:59:43.515Z,27.35
2023-02-11T17:02:16.744Z,26.45
2023-02-11T17:04:45.240Z,27.02
2023-02-11T17:07:13.335Z,26.83
2023-02-11T17:09:42.505Z,27.65
2023-02-11T17:12:10.237Z,26.90
2023-02-11T17:14:37.986Z,25.80
2023-02-11T17:17:05.793Z,27.35
2023-02-11T17:19:33.538Z,26.48
2023-02-11T17:22:01.231Z,27.88
2023-02-11T17:24:29.024Z,26.95
2023-02-11T17:26:58.118Z,26.67
2023-02-11T17:29:26.671Z,27.13
2023-02-11T17:31:54.875Z,26.50
2023-02-11T17:34:23.828Z,26.83
2023-02-11T17:36:51.840Z,27.13
2023-02-11T17:39:21.093Z,25.90
2023-02-11T17:41:48.975Z,25.73
2023-02-11T17:44:18.071Z,28.30
2023-02-11T17:46:45.811Z,26.52
2023-02-11T17:49:13.760Z,27.05
2023-02-11T17:51:41.616Z,27.00
2023-02-11T17:54:12.136Z,24.10
2023-02-11T17:56:40.278Z,27.35
2023-02-11T17:59:09.390Z,25.08
2023-02-11T18:01:40.071Z,26.02
2023-02-11T18:04:09.902Z,26.73
2023-02-11T18:06:37.652Z,25.63
2023-02-11T18:09:05.484Z,25.45
2023-02-11T18:11:34.996Z,26.48
2023-02-11T18:14:04.558Z,26.45
2023-02-11T18:16:35.062Z,27.10
2023-02-11T18:19:04.746Z,25.85
2023-02-11T18:21:32.516Z,25.38
2023-02-11T18:24:05.974Z,27.75
2023-02-11T18:26:34.530Z,26.48
2023-02-11T18:29:03.782Z,25.45
2023-02-11T18:31:31.735Z,26.75
2023-02-11T18:33:59.579Z,26.10
2023-02-11T18:36:28.745Z,25.65
2023-02-11T18:38:58.078Z,25.75
2023-02-11T18:41:25.830Z,27.38
2023-02-11T18:43:54.114Z,26.67
2023-02-11T18:46:21.857Z,27.38
2023-02-11T18:48:50.133Z,26.23
2023-02-11T18:51:19.349Z,24.70
2023-02-11T18:53:48.450Z,26.05
2023-02-11T18:56:18.370Z,25.05
2023-02-11T18:58:46.179Z,26.83
2023-02-11T19:01:16.353Z,25.90
2023-02-11T19:03:44.520Z,24.33
2023-02-11T19:06:16.689Z,25.13
2023-02-11T19:08:44.479Z,25.50
2023-02-11T19:11:16.171Z,25.33
2023-02-11T19:13:43.906Z,24.48
2023-02-11T19:16:12.455Z,24.45
2023-02-11T19:18:40.203Z,26.08
2023-02-11T19:21:09.380Z,27.30
2023-02-11T19:23:37.532Z,26.70
2023-02-11T19:26:06.458Z,25.25
2023-02-11T19:28:37.187Z,24.88
2023-02-11T19:31:09.606Z,26.08
2023-02-11T19:33:38.007Z,26.40
2023-02-11T19:36:07.204Z,27.90
2023-02-11T19:38:35.256Z,24.08
2023-02-11T19:41:03.005Z,26.38
2023-02-11T19:43:30.840Z,26.45
2023-02-11T19:46:02.053Z,26.40
2023-02-11T19:48:30.090Z,26.48
2023-02-11T19:50:58.187Z,26.10
2023-02-11T19:53:25.964Z,25.48
2023-02-11T19:55:53.886Z,24.63
2023-02-11T19:58:21.795Z,25.13
2023-02-11T20:00:49.513Z,26.27
2023-02-11T20:03:18.658Z,24.90
2023-02-11T20:05:47.796Z,24.45
2023-02-11T20:08:17.023Z,24.85
2023-02-11T20:10:44.802Z,24.17
2023-02-11T20:13:12.508Z,24.02
2023-02-11T20:15:40.322Z,23.45
2023-02-11T20:18:08.171Z,23.70
2023-02-11T20:20:39.299Z,25.02
2023-02-11T20:23:07.003Z,23.90
2023-02-11T20:25:34.681Z,24.52
2023-02-11T20:28:02.440Z,24.63
2023-02-11T20:30:30.231Z,23.92
2023-02-11T20:32:58.517Z,22.75
2023-02-11T20:35:26.293Z,22.40
2023-02-11T20:37:55.410Z,23.27
2023-02-11T20:40:23.190Z,22.98
2023-02-11T20:42:50.897Z,22.42
2023-02-11T20:45:18.741Z,22.75
2023-02-11T20:47:46.439Z,22.85
2023-02-11T20:50:14.160Z,23.42
2023-02-11T20:52:41.904Z,23.00
2023-02-11T20:55:11.063Z,22.83
2023-02-11T20:57:38.820Z,23.85
2023-02-11T21:00:07.904Z,22.90
2023-02-11T21:02:35.668Z,23.33
2023-02-11T21:05:03.383Z,23.02
2023-02-11T21:07:31.384Z,22.58
2023-02-11T21:09:59.107Z,22.50
2023-02-11T21:12:28.175Z,23.15
2023-02-11T21:14:57.183Z,22.63
2023-02-11T21:17:26.359Z,21.00
2023-02-11T21:19:54.069Z,22.08
2023-02-11T21:22:21.809Z,20.38
2023-02-11T21:24:49.709Z,21.30
2023-02-11T21:27:17.469Z,20.52
2023-02-11T21:29:54.115Z,20.38
2023-02-11T21:32:22.511Z,18.40
2023-02-11T21:34:50.228Z,19.88
2023-02-11T21:37:17.929Z,21.02
2023-02-11T21:39:45.700Z,21.55
2023-02-11T21:42:13.490Z,19.20
2023-02-11T21:44:41.335Z,19.00
2023-02-11T21:47:10.467Z,19.13
2023-02-11T21:49:38.187Z,21.98
2023-02-11T21:52:06.021Z,20.10
2023-02-11T21:54:33.735Z,20.60
2023-02-11T21:57:03.135Z,20.23
2023-02-11T21:59:31.808Z,18.60
2023-02-11T22:01:59.890Z,19.30
2023-02-11T22:04:29.035Z,19.10
2023-02-11T22:06:56.881Z,19.52
2023-02-11T22:09:24.640Z,17.38
2023-02-11T22:11:53.639Z,18.23
2023-02-11T22:14:21.408Z,18.13
2023-02-11T22:16:49.297Z,18.55
2023-02-11T22:19:17.339Z,17.30
2023-02-11T22:21:46.480Z,18.00
2023-02-11T22:24:14.194Z,17.42
2023-02-11T22:26:41.966Z,16.42
2023-02-11T22:29:10.557Z,16.17
2023-02-11T22:31:38.440Z,16.15
2023-02-11T22:34:06.587Z,16.50
2023-02-11T22:36:35.762Z,17.83
2023-02-11T22:39:07.099Z,16.13
2023-02-11T22:41:35.116Z,16.83
2023-02-11T22:44:02.864Z,16.10
2023-02-11T22:46:30.868Z,15.25
2023-02-11T22:48:58.690Z,15.75
2023-02-11T22:51:28.168Z,15.35
2023-02-11T22:53:57.490Z,15.55
2023-02-11T22:56:27.946Z,14.43
2023-02-11T22:58:58.243Z,13.38
2023-02-11T23:01:25.978Z,12.48
2023-02-11T23:03:53.880Z,14.30
2023-02-11T23:06:22.531Z,13.13
2023-02-11T23:08:50.243Z,12.73
2023-02-11T23:11:21.080Z,12.98
2023-02-11T23:13:52.210Z,12.60
2023-02-11T23:16:22.364Z,12.88
2023-02-11T23:18:50.696Z,12.85
2023-02-11T23:21:21.153Z,12.50
2023-02-11T23:23:50.070Z,11.70
2023-02-11T23:26:19.109Z,11.02
2023-02-11T23:28:47.391Z,11.18
2023-02-11T23:31:18.993Z,10.57
2023-02-11T23:33:47.322Z,9.90
2023-02-11T23:36:15.896Z,11.82
2023-02-11T23:38:44.286Z,10.52
2023-02-11T23:41:12.438Z,11.00
2023-02-11T23:43:40.406Z,10.10
2023-02-11T23:46:09.320Z,10.55
2023-02-11T23:48:40.339Z,9.65
2023-02-11T23:51:09.604Z,9.38
2023-02-11T23:53:37.588Z,9.43
2023-02-11T23:56:09.070Z,9.48
2023-02-11T23:58:37.616Z,8.77
